Time;durP1;ratioP1;P1;durP2;ratioP2;P2;SDS_P1;SDS_P2;PMS_P1;PMS_P2;Temp;Humidity;BMP_temperature;BMP_pressure;BME280_temperature;BME280_humidity;BME280_pressure;Samples;Min_cycle;Max_cycle;Signal;HPM_P1;HPM_P2
2020/12/08 00:00:09;;;;;;;10.88;6.47;;;1.10;99.90;;;;;;5097229;28;20206;-91
2020/12/08 00:02:35;;;;;;;9.68;7.90;;;1.10;99.90;;;;;;5096291;28;20200;-90
2020/12/08 00:05:02;;;;;;;11.15;8.77;;;1.10;99.90;;;;;;5097377;28;20213;-90
2020/12/08 00:07:28;;;;;;;13.18;9.55;;;1.00;99.90;;;;;;5096686;28;20258;-90
2020/12/08 00:09:55;;;;;;;10.90;7.53;;;1.00;99.90;;;;;;5097184;28;20211;-90
2020/12/08 00:12:24;;;;;;;12.02;7.93;;;1.00;99.90;;;;;;5096507;28;20203;-91
2020/12/08 00:14:51;;;;;;;10.55;7.70;;;1.00;99.90;;;;;;5096295;28;20203;-91
2020/12/08 00:17:18;;;;;;;12.57;8.70;;;1.00;99.90;;;;;;5096224;28;20228;-90
2020/12/08 00:19:44;;;;;;;13.38;8.80;;;1.00;99.90;;;;;;5096552;28;20233;-90
2020/12/08 00:22:11;;;;;;;11.73;8.07;;;0.90;99.90;;;;;;5096769;28;20552;-90
2020/12/08 00:24:38;;;;;;;11.60;7.93;;;0.90;99.90;;;;;;5096391;28;20205;-90
2020/12/08 00:27:08;;;;;;;12.55;8.25;;;0.90;99.90;;;;;;5096435;28;20213;-90
2020/12/08 00:29:36;;;;;;;13.20;9.73;;;0.90;99.90;;;;;;5096324;28;20579;-88
2020/12/08 00:32:03;;;;;;;15.90;11.30;;;1.00;99.90;;;;;;5096757;28;20273;-88
2020/12/08 00:34:30;;;;;;;15.38;10.95;;;1.10;99.90;;;;;;5095421;28;20211;-88
2020/12/08 00:36:56;;;;;;;16.55;9.55;;;1.20;99.90;;;;;;5096392;28;20537;-88
2020/12/08 00:39:22;;;;;;;14.98;10.07;;;1.20;99.90;;;;;;5095665;28;20278;-88
2020/12/08 00:41:49;;;;;;;13.45;10.45;;;1.20;99.90;;;;;;5096338;28;20547;-89
2020/12/08 00:44:15;;;;;;;11.10;9.10;;;1.20;99.90;;;;;;5095712;28;20255;-90
2020/12/08 00:46:47;;;;;;;15.70;9.65;;;1.20;99.90;;;;;;5095787;28;20207;-90
2020/12/08 00:49:13;;;;;;;14.75;10.30;;;1.10;99.90;;;;;;5095548;28;20312;-90
2020/12/08 00:51:40;;;;;;;11.40;8.68;;;1.10;99.90;;;;;;5096586;28;20587;-88
2020/12/08 00:54:07;;;;;;;10.98;8.77;;;1.10;99.90;;;;;;5096291;28;20663;-89
2020/12/08 00:56:33;;;;;;;12.50;9.40;;;1.10;99.90;;;;;;5098368;28;20265;-87
2020/12/08 00:59:00;;;;;;;12.68;9.35;;;1.10;99.90;;;;;;5096750;28;20647;-87
2020/12/08 01:01:27;;;;;;;13.32;10.00;;;1.10;99.90;;;;;;5095377;28;20293;-88
2020/12/08 01:03:54;;;;;;;10.65;7.80;;;1.00;99.90;;;;;;5096062;28;20258;-88
2020/12/08 01:06:20;;;;;;;11.57;8.15;;;1.00;99.90;;;;;;5096130;28;20267;-87
2020/12/08 01:08:47;;;;;;;15.60;11.60;;;1.00;99.90;;;;;;5096230;28;20201;-87
2020/12/08 01:11:14;;;;;;;12.60;10.35;;;1.00;99.90;;;;;;5095173;28;20238;-88
2020/12/08 01:13:40;;;;;;;18.20;11.60;;;1.10;99.90;;;;;;5095575;28;20211;-87
2020/12/08 01:16:10;;;;;;;19.50;12.48;;;1.30;99.90;;;;;;5095064;28;20224;-87
2020/12/08 01:18:36;;;;;;;14.30;10.57;;;1.20;99.90;;;;;;5095969;28;20207;-87
2020/12/08 01:21:04;;;;;;;12.93;9.43;;;1.20;99.90;;;;;;5095834;28;20281;-87
2020/12/08 01:23:30;;;;;;;17.05;10.95;;;1.20;99.90;;;;;;5094571;28;20710;-87
2020/12/08 01:25:56;;;;;;;12.52;9.68;;;1.40;99.90;;;;;;5095296;28;20732;-87
2020/12/08 01:28:23;;;;;;;14.77;10.75;;;1.50;99.90;;;;;;5094855;28;20323;-87
2020/12/08 01:30:49;;;;;;;17.63;12.35;;;1.50;99.90;;;;;;5095150;28;20262;-87
2020/12/08 01:33:16;;;;;;;14.50;10.82;;;1.60;99.90;;;;;;5094960;28;20204;-87
2020/12/08 01:35:43;;;;;;;14.57;11.45;;;1.60;99.90;;;;;;5095076;28;20303;-88
2020/12/08 01:38:10;;;;;;;14.70;10.00;;;1.70;99.90;;;;;;5074611;28;20208;-91
2020/12/08 01:40:38;;;;;;;16.90;10.88;;;1.70;99.90;;;;;;5075716;28;20203;-87
2020/12/08 01:43:04;;;;;;;13.50;9.98;;;1.80;99.90;;;;;;5074706;28;20204;-87
2020/12/08 01:45:31;;;;;;;16.23;10.45;;;1.80;99.90;;;;;;5065991;28;20269;-87
2020/12/08 01:47:58;;;;;;;12.77;9.48;;;1.80;99.90;;;;;;5075213;28;20286;-85
2020/12/08 01:50:25;;;;;;;12.43;9.68;;;1.80;99.90;;;;;;5074002;28;20686;-85
2020/12/08 01:52:51;;;;;;;12.85;10.18;;;1.70;99.90;;;;;;5075705;28;20215;-86
2020/12/08 01:55:18;;;;;;;15.52;10.48;;;1.70;99.90;;;;;;5095424;28;20231;-85
2020/12/08 01:57:45;;;;;;;13.07;9.52;;;1.60;99.90;;;;;;5097678;28;20296;-86
2020/12/08 02:00:11;;;;;;;16.38;10.50;;;1.70;99.90;;;;;;5094813;28;20254;-87
2020/12/08 02:02:38;;;;;;;14.75;10.55;;;1.80;99.90;;;;;;5094231;28;20254;-86
2020/12/08 02:05:05;;;;;;;18.27;10.77;;;1.80;99.90;;;;;;5074884;28;20279;-86
2020/12/08 02:07:31;;;;;;;12.43;9.15;;;1.90;99.90;;;;;;5073696;28;20319;-86
2020/12/08 02:09:58;;;;;;;13.40;10.07;;;1.80;99.90;;;;;;5074471;28;20210;-86
2020/12/08 02:12:25;;;;;;;15.48;11.40;;;1.90;99.90;;;;;;5092138;28;20307;-86
2020/12/08 02:14:52;;;;;;;16.25;11.38;;;1.90;99.90;;;;;;5094314;28;20631;-85
2020/12/08 02:17:18;;;;;;;15.85;11.65;;;1.90;99.90;;;;;;5091588;28;20235;-86
2020/12/08 02:19:45;;;;;;;13.27;10.15;;;1.90;99.90;;;;;;5094289;28;20197;-86
2020/12/08 02:22:13;;;;;;;13.90;9.95;;;1.90;99.90;;;;;;5093724;28;20288;-86
2020/12/08 02:24:39;;;;;;;14.18;10.38;;;1.90;99.90;;;;;;5082421;28;20255;-86
2020/12/08 02:27:06;;;;;;;20.17;11.25;;;1.90;99.90;;;;;;5082482;28;20259;-86
2020/12/08 02:29:33;;;;;;;13.13;9.60;;;1.90;99.90;;;;;;5091336;28;20277;-86
2020/12/08 02:31:59;;;;;;;11.70;9.35;;;2.00;99.90;;;;;;5094349;28;20210;-86
2020/12/08 02:34:26;;;;;;;15.30;10.90;;;2.00;99.90;;;;;;5094103;28;20207;-86
2020/12/08 02:36:58;;;;;;;19.08;13.23;;;2.00;99.90;;;;;;5094241;28;20348;-86
2020/12/08 02:39:26;;;;;;;15.02;11.43;;;2.00;99.90;;;;;;5093541;28;20280;-86
2020/12/08 02:41:53;;;;;;;14.35;11.10;;;1.90;99.90;;;;;;5093942;28;20206;-86
2020/12/08 02:44:20;;;;;;;16.25;12.15;;;2.00;99.90;;;;;;5086336;28;20247;-85
2020/12/08 02:46:50;;;;;;;15.20;12.15;;;1.90;99.90;;;;;;5098292;28;20705;-85
2020/12/08 02:49:18;;;;;;;16.33;12.45;;;2.00;99.90;;;;;;5100933;28;20200;-86
2020/12/08 02:51:45;;;;;;;18.63;13.50;;;2.10;99.90;;;;;;5100483;28;20267;-84
2020/12/08 02:54:12;;;;;;;15.95;10.95;;;2.10;99.90;;;;;;5101953;28;20211;-85
2020/12/08 02:56:40;;;;;;;17.60;13.50;;;2.10;99.90;;;;;;5105411;28;20255;-85
2020/12/08 02:59:06;;;;;;;18.77;13.57;;;2.20;99.90;;;;;;5104339;28;20210;-86
2020/12/08 03:01:33;;;;;;;18.83;12.70;;;2.20;99.90;;;;;;5102665;28;20423;-86
2020/12/08 03:03:59;;;;;;;20.15;13.50;;;2.20;99.90;;;;;;5103073;28;20211;-87
2020/12/08 03:06:26;;;;;;;20.48;13.32;;;2.10;99.90;;;;;;5101133;28;20204;-86
2020/12/08 03:08:52;;;;;;;18.92;13.25;;;2.00;99.90;;;;;;5102463;28;20256;-86
2020/12/08 03:11:18;;;;;;;18.52;13.25;;;2.00;99.90;;;;;;5101597;28;20207;-85
2020/12/08 03:13:46;;;;;;;18.33;13.52;;;2.00;99.90;;;;;;5100434;28;20698;-85
2020/12/08 03:16:17;;;;;;;20.40;14.43;;;2.00;99.90;;;;;;5100457;28;20291;-85
2020/12/08 03:18:45;;;;;;;23.42;16.30;;;1.90;99.90;;;;;;5100861;28;20204;-88
2020/12/08 03:21:11;;;;;;;18.90;13.85;;;2.00;99.90;;;;;;5100662;28;20205;-86
2020/12/08 03:23:38;;;;;;;19.70;14.52;;;2.00;99.90;;;;;;5099395;28;20265;-86
2020/12/08 03:26:04;;;;;;;22.15;14.23;;;1.90;99.90;;;;;;5075478;28;20265;-86
2020/12/08 03:28:30;;;;;;;20.15;13.75;;;1.80;99.90;;;;;;5064944;28;20356;-87
2020/12/08 03:30:58;;;;;;;18.95;13.30;;;1.80;99.90;;;;;;5073733;28;20275;-87
2020/12/08 03:33:24;;;;;;;17.45;12.18;;;1.70;99.90;;;;;;5072846;28;20238;-85
2020/12/08 03:35:53;;;;;;;14.77;12.30;;;1.70;99.90;;;;;;5073871;28;20232;-87
2020/12/08 03:38:19;;;;;;;18.33;13.30;;;1.70;99.90;;;;;;5088833;28;20213;-87
2020/12/08 03:40:46;;;;;;;17.80;12.35;;;1.70;99.90;;;;;;5093793;28;20226;-89
2020/12/08 03:43:12;;;;;;;17.17;12.07;;;1.70;99.90;;;;;;5094147;28;20211;-87
2020/12/08 03:45:38;;;;;;;17.45;13.85;;;1.70;99.90;;;;;;5092960;28;20300;-86
2020/12/08 03:48:06;;;;;;;20.38;15.23;;;1.80;99.90;;;;;;5093909;28;20224;-86
2020/12/08 03:50:32;;;;;;;18.30;14.40;;;1.90;99.90;;;;;;5091282;28;20662;-88
2020/12/08 03:52:59;;;;;;;19.60;14.10;;;2.00;99.90;;;;;;5093979;28;20213;-88
2020/12/08 03:55:25;;;;;;;18.63;13.02;;;2.00;99.90;;;;;;5097122;28;20216;-86
2020/12/08 03:57:52;;;;;;;19.27;15.50;;;2.10;99.90;;;;;;5097572;28;20238;-86
2020/12/08 04:00:18;;;;;;;20.30;13.98;;;2.20;99.90;;;;;;5112144;28;20204;-88
2020/12/08 04:02:44;;;;;;;17.75;13.68;;;2.30;99.90;;;;;;5092666;28;20211;-86
2020/12/08 04:05:12;;;;;;;19.58;13.68;;;2.30;99.90;;;;;;5099472;28;20219;-88
2020/12/08 04:07:38;;;;;;;20.83;14.38;;;2.40;99.90;;;;;;5097894;28;20264;-86
2020/12/08 04:10:05;;;;;;;18.92;13.70;;;2.40;99.90;;;;;;5099577;28;20211;-88
2020/12/08 04:12:31;;;;;;;21.05;14.70;;;2.50;99.90;;;;;;5096638;28;20211;-85
2020/12/08 04:14:57;;;;;;;20.23;15.38;;;2.50;99.90;;;;;;5096203;28;20203;-86
2020/12/08 04:17:24;;;;;;;21.27;15.02;;;2.50;99.90;;;;;;5096142;28;20698;-87
2020/12/08 04:19:50;;;;;;;21.92;15.85;;;2.60;99.90;;;;;;5096869;28;20258;-85
2020/12/08 04:22:18;;;;;;;19.88;14.52;;;2.60;99.90;;;;;;5096324;28;20208;-90
2020/12/08 04:24:44;;;;;;;16.92;12.95;;;2.70;99.90;;;;;;5096134;28;20260;-86
2020/12/08 04:27:11;;;;;;;18.08;13.02;;;2.80;99.90;;;;;;5096439;28;20204;-88
2020/12/08 04:29:37;;;;;;;26.03;14.17;;;2.80;99.90;;;;;;5096441;28;20554;-87
2020/12/08 04:32:04;;;;;;;18.58;13.15;;;2.80;99.90;;;;;;5095933;28;20492;-87
2020/12/08 04:34:31;;;;;;;20.10;14.82;;;2.80;99.90;;;;;;5096298;28;20204;-86
2020/12/08 04:36:59;;;;;;;19.13;14.07;;;2.90;99.90;;;;;;5096568;28;20223;-88
2020/12/08 04:39:26;;;;;;;16.60;13.87;;;2.90;99.90;;;;;;5096441;28;20204;-89
2020/12/08 04:41:54;;;;;;;18.27;14.07;;;2.90;99.90;;;;;;5095373;28;20499;-86
2020/12/08 04:44:20;;;;;;;17.48;14.13;;;3.00;99.90;;;;;;5095708;28;20921;-87
2020/12/08 04:46:53;;;;;;;19.05;13.65;;;3.00;99.90;;;;;;5096057;28;20656;-86
2020/12/08 04:49:21;;;;;;;25.37;16.73;;;3.00;99.90;;;;;;5095662;28;20274;-87
2020/12/08 04:51:47;;;;;;;20.15;13.60;;;3.00;99.90;;;;;;5096021;28;20902;-87
2020/12/08 04:54:13;;;;;;;19.65;14.88;;;3.00;99.90;;;;;;5095683;28;20271;-86
2020/12/08 04:56:43;;;;;;;17.38;14.00;;;3.00;99.90;;;;;;5095637;28;20673;-89
2020/12/08 04:59:19;;;;;;;22.50;13.95;;;3.10;99.90;;;;;;5093112;28;20203;-86
2020/12/08 05:01:46;;;;;;;17.00;12.93;;;3.10;99.90;;;;;;5082979;28;20253;-86
2020/12/08 05:04:13;;;;;;;19.40;14.33;;;3.10;99.90;;;;;;5095047;28;20511;-86
2020/12/08 05:06:39;;;;;;;21.92;15.38;;;3.20;99.90;;;;;;5094288;28;20846;-86
2020/12/08 05:09:07;;;;;;;18.40;13.70;;;3.10;99.90;;;;;;5096432;28;20254;-85
2020/12/08 05:11:34;;;;;;;18.77;14.93;;;3.20;99.90;;;;;;5094750;28;20489;-86
2020/12/08 05:14:03;;;;;;;23.70;15.23;;;3.20;99.90;;;;;;5094843;28;20216;-86
2020/12/08 05:16:29;;;;;;;22.70;15.70;;;3.20;99.90;;;;;;5095662;28;20582;-86
2020/12/08 05:19:07;;;;;;;21.90;15.03;;;3.20;99.90;;;;;;5087302;28;20505;-86
2020/12/08 05:21:34;;;;;;;24.58;16.95;;;3.20;99.90;;;;;;5074894;28;20437;-86
2020/12/08 05:24:00;;;;;;;21.40;14.93;;;3.20;99.90;;;;;;5075279;28;20310;-86
2020/12/08 05:26:28;;;;;;;19.10;14.00;;;3.20;99.90;;;;;;5076834;28;20758;-86
2020/12/08 05:29:04;;;;;;;21.40;14.60;;;3.30;99.90;;;;;;5095076;28;20774;-86
2020/12/08 05:31:31;;;;;;;25.37;15.87;;;3.30;99.90;;;;;;5094621;28;20439;-86
2020/12/08 05:33:59;;;;;;;24.37;15.40;;;3.20;99.90;;;;;;5095843;28;20488;-86
2020/12/08 05:36:28;;;;;;;20.27;14.67;;;3.20;99.90;;;;;;5095303;28;20522;-86
2020/12/08 05:39:00;;;;;;;23.37;16.07;;;3.20;99.90;;;;;;5094430;28;20902;-86
2020/12/08 05:41:30;;;;;;;20.30;15.20;;;3.30;99.90;;;;;;5094964;28;20435;-86
2020/12/08 05:44:05;;;;;;;21.67;15.63;;;3.20;99.90;;;;;;5095640;28;20489;-86
2020/12/08 05:46:41;;;;;;;22.27;15.60;;;3.20;99.90;;;;;;5085306;28;20434;-88
2020/12/08 05:49:11;;;;;;;22.87;14.70;;;3.20;99.90;;;;;;5091388;28;20924;-86
2020/12/08 05:51:43;;;;;;;22.57;14.93;;;3.20;99.90;;;;;;5094029;28;20484;-85
2020/12/08 05:54:18;;;;;;;21.85;15.23;;;3.20;99.90;;;;;;5095043;28;20446;-86
2020/12/08 05:56:45;;;;;;;21.00;14.50;;;3.30;99.90;;;;;;5091466;28;20215;-86
2020/12/08 05:59:12;;;;;;;26.42;15.82;;;3.30;99.90;;;;;;5095179;28;20910;-86
2020/12/08 06:01:49;;;;;;;19.97;13.77;;;3.30;99.90;;;;;;5092075;28;20199;-88
2020/12/08 06:04:15;;;;;;;20.38;15.10;;;3.30;99.90;;;;;;5088417;28;20566;-87
2020/12/08 06:06:52;;;;;;;19.90;14.57;;;3.30;99.90;;;;;;5074208;28;20697;-87
2020/12/08 06:09:26;;;;;;;18.80;14.13;;;3.30;99.90;;;;;;5074411;28;20570;-87
2020/12/08 06:11:53;;;;;;;21.10;13.80;;;3.30;99.90;;;;;;5088196;28;20485;-87
2020/12/08 06:14:33;;;;;;;23.52;16.50;;;3.30;99.90;;;;;;5093638;28;20456;-87
2020/12/08 06:17:01;;;;;;;20.53;14.00;;;3.30;99.90;;;;;;5094567;28;20277;-87
2020/12/08 06:19:28;;;;;;;21.10;13.88;;;3.30;99.90;;;;;;5090589;28;20935;-86
2020/12/08 06:21:54;;;;;;;22.13;14.10;;;3.20;99.90;;;;;;5093649;28;20200;-88
2020/12/08 06:24:21;;;;;;;20.17;14.68;;;3.20;99.90;;;;;;5094771;28;20446;-89
2020/12/08 06:26:48;;;;;;;20.77;14.02;;;3.20;99.90;;;;;;5094475;28;20586;-87
2020/12/08 06:29:15;;;;;;;23.23;16.38;;;3.20;99.90;;;;;;5092168;28;20227;-86
2020/12/08 06:31:43;;;;;;;19.45;13.82;;;3.20;99.90;;;;;;5093871;28;20593;-88
2020/12/08 06:34:10;;;;;;;20.35;13.55;;;3.20;99.90;;;;;;5094095;28;20204;-86
2020/12/08 06:36:37;;;;;;;19.42;14.73;;;3.20;99.90;;;;;;5093174;28;20224;-87
2020/12/08 06:39:06;;;;;;;17.15;13.57;;;3.20;99.90;;;;;;5094586;28;20320;-86
2020/12/08 06:41:34;;;;;;;17.33;13.52;;;3.30;99.90;;;;;;5093375;28;20215;-87
2020/12/08 06:44:01;;;;;;;19.90;14.60;;;3.30;99.90;;;;;;5092914;28;20204;-87
2020/12/08 06:46:28;;;;;;;20.33;14.02;;;3.30;99.90;;;;;;5093944;28;20438;-87
2020/12/08 06:49:04;;;;;;;21.10;14.30;;;3.30;99.90;;;;;;5093175;28;20254;-86
2020/12/08 06:51:31;;;;;;;20.35;14.05;;;3.30;99.90;;;;;;5093745;28;20204;-86
2020/12/08 06:53:57;;;;;;;19.73;14.67;;;3.30;99.90;;;;;;5090169;28;20547;-85
2020/12/08 06:56:31;;;;;;;19.70;14.27;;;3.40;99.90;;;;;;5093062;28;20485;-92
2020/12/08 06:58:57;;;;;;;23.83;15.07;;;3.40;99.90;;;;;;5093776;28;20239;-85
2020/12/08 07:01:25;;;;;;;21.33;15.07;;;3.50;99.90;;;;;;5093195;28;20446;-85
2020/12/08 07:03:53;;;;;;;20.10;15.02;;;3.50;99.90;;;;;;5093615;28;20199;-84
2020/12/08 07:06:21;;;;;;;19.50;14.27;;;3.40;99.90;;;;;;5095514;28;20200;-85
2020/12/08 07:08:49;;;;;;;21.30;15.00;;;3.40;99.90;;;;;;5094765;28;20453;-84
2020/12/08 07:11:24;;;;;;;19.53;13.60;;;3.50;99.90;;;;;;5097455;28;20618;-85
2020/12/08 07:14:01;;;;;;;20.60;14.90;;;3.50;99.90;;;;;;5090893;28;20811;-85
2020/12/08 07:16:29;;;;;;;17.07;13.57;;;3.50;99.90;;;;;;5086624;28;20461;-85
2020/12/08 07:18:56;;;;;;;18.40;12.77;;;3.60;99.90;;;;;;5091991;28;20450;-84
2020/12/08 07:21:36;;;;;;;19.40;13.87;;;3.60;99.90;;;;;;5099033;28;20446;-86
2020/12/08 07:24:05;;;;;;;20.80;14.75;;;3.60;99.90;;;;;;5091027;28;20523;-93
2020/12/08 07:26:36;;;;;;;21.13;14.27;;;3.70;99.90;;;;;;5089202;28;20299;-85
2020/12/08 07:29:03;;;;;;;22.57;14.50;;;3.70;99.90;;;;;;5094732;28;20232;-84
2020/12/08 07:31:30;;;;;;;17.27;13.40;;;3.70;99.90;;;;;;5097641;28;20929;-85
2020/12/08 07:33:58;;;;;;;18.53;13.33;;;3.80;99.90;;;;;;5091099;28;20921;-85
2020/12/08 07:36:30;;;;;;;18.07;13.80;;;3.80;99.90;;;;;;5096882;28;20482;-91
2020/12/08 07:38:59;;;;;;;18.27;13.30;;;3.80;99.90;;;;;;5093776;28;20517;-85
2020/12/08 07:41:27;;;;;;;18.73;13.63;;;3.70;99.90;;;;;;5096844;28;20446;-93
2020/12/08 07:43:55;;;;;;;18.47;13.10;;;3.70;99.90;;;;;;5094707;28;20980;-84
2020/12/08 07:46:26;;;;;;;16.90;12.43;;;3.70;99.90;;;;;;5098002;28;20430;-86
2020/12/08 07:49:06;;;;;;;17.27;12.38;;;3.80;99.90;;;;;;5093477;28;20509;-84
2020/12/08 07:51:35;;;;;;;18.00;11.90;;;3.80;99.90;;;;;;5097543;28;20624;-86
2020/12/08 07:54:02;;;;;;;17.17;11.93;;;3.90;99.90;;;;;;5096580;28;20459;-85
2020/12/08 07:56:30;;;;;;;16.40;11.80;;;3.90;99.90;;;;;;5097171;28;20511;-85
2020/12/08 07:58:58;;;;;;;22.70;13.97;;;3.90;99.90;;;;;;5097684;28;20924;-84
2020/12/08 08:01:26;;;;;;;20.23;13.57;;;4.00;99.90;;;;;;5092549;28;20491;-84
2020/12/08 08:03:53;;;;;;;17.30;13.60;;;4.10;99.90;;;;;;5097433;28;20208;-85
2020/12/08 08:06:21;;;;;;;16.33;11.90;;;4.10;99.90;;;;;;5096767;28;20440;-83
2020/12/08 08:08:50;;;;;;;17.10;11.80;;;4.10;99.90;;;;;;5097446;28;20549;-84
2020/12/08 08:11:17;;;;;;;16.60;12.50;;;4.20;99.90;;;;;;5097440;28;20579;-85
2020/12/08 08:13:45;;;;;;;17.03;13.13;;;4.20;99.90;;;;;;5097759;28;20901;-86
2020/12/08 08:16:13;;;;;;;18.40;13.33;;;4.30;99.90;;;;;;5097650;28;20544;-85
2020/12/08 08:18:40;;;;;;;21.60;14.40;;;4.40;99.90;;;;;;5096221;28;20446;-86
2020/12/08 08:21:07;;;;;;;16.87;12.87;;;4.50;99.90;;;;;;5096648;28;20442;-87
2020/12/08 08:23:33;;;;;;;20.50;13.63;;;4.50;99.90;;;;;;5097225;28;20450;-85
2020/12/08 08:26:04;;;;;;;16.90;11.63;;;4.60;99.90;;;;;;5096088;28;20918;-85
2020/12/08 08:28:31;;;;;;;13.60;11.27;;;4.60;99.90;;;;;;5096574;28;20491;-86
2020/12/08 08:30:57;;;;;;;18.60;13.30;;;4.70;99.90;;;;;;5092440;28;20533;-86
2020/12/08 08:33:23;;;;;;;16.47;11.60;;;4.70;99.90;;;;;;5089806;28;20518;-85
2020/12/08 08:35:50;;;;;;;20.43;13.37;;;4.90;99.90;;;;;;5077139;28;20903;-85
2020/12/08 08:38:18;;;;;;;14.93;11.33;;;4.90;99.90;;;;;;5096542;28;20524;-84
2020/12/08 08:40:45;;;;;;;15.97;12.20;;;5.10;99.90;;;;;;5096205;28;20535;-84
2020/12/08 08:43:12;;;;;;;16.70;12.00;;;5.20;99.90;;;;;;5097307;28;20449;-85
2020/12/08 08:45:38;;;;;;;18.30;11.77;;;5.30;99.90;;;;;;5089471;28;20541;-85
2020/12/08 08:48:05;;;;;;;14.83;12.07;;;5.40;99.90;;;;;;5085853;28;20491;-85
2020/12/08 08:50:32;;;;;;;14.63;10.63;;;5.50;99.90;;;;;;5096128;28;20460;-86
2020/12/08 08:52:58;;;;;;;17.77;11.70;;;5.50;99.90;;;;;;5095852;28;20480;-86
2020/12/08 08:55:25;;;;;;;14.50;11.07;;;5.60;99.90;;;;;;5096182;28;20770;-86
2020/12/08 08:57:51;;;;;;;14.50;11.67;;;5.60;99.90;;;;;;5095922;28;20869;-86
2020/12/08 09:00:18;;;;;;;15.23;10.23;;;5.60;99.90;;;;;;5096246;28;20449;-86
2020/12/08 09:02:45;;;;;;;13.50;11.40;;;5.70;99.90;;;;;;5084312;28;20454;-85
2020/12/08 09:05:13;;;;;;;15.20;11.53;;;5.70;99.90;;;;;;5079309;28;20823;-86
2020/12/08 09:07:40;;;;;;;16.10;10.00;;;5.80;99.90;;;;;;5094698;28;20461;-86
2020/12/08 09:10:06;;;;;;;14.30;10.90;;;5.80;99.90;;;;;;5095940;28;20536;-86
2020/12/08 09:12:32;;;;;;;14.70;10.73;;;5.80;99.90;;;;;;5095163;28;21033;-86
2020/12/08 09:15:03;;;;;;;13.50;9.80;;;5.70;99.90;;;;;;5096042;28;20510;-86
2020/12/08 09:17:30;;;;;;;14.03;10.27;;;5.70;99.90;;;;;;5091335;28;21061;-92
2020/12/08 09:19:56;;;;;;;16.03;10.43;;;5.70;99.90;;;;;;5096133;28;20548;-86
2020/12/08 09:22:23;;;;;;;14.60;10.53;;;5.70;99.90;;;;;;5096601;28;20515;-86
2020/12/08 09:24:50;;;;;;;14.53;9.53;;;5.70;99.90;;;;;;5095832;28;20455;-88
2020/12/08 09:27:17;;;;;;;14.90;10.33;;;5.70;99.90;;;;;;5094547;28;20450;-87
2020/12/08 09:29:44;;;;;;;13.20;10.07;;;5.70;99.90;;;;;;5085111;28;20513;-86
2020/12/08 09:32:10;;;;;;;12.13;8.90;;;5.70;99.90;;;;;;5076470;28;20484;-86
2020/12/08 09:34:38;;;;;;;14.50;10.00;;;5.80;99.90;;;;;;5095128;28;20850;-87
2020/12/08 09:37:05;;;;;;;10.87;8.67;;;5.80;99.90;;;;;;5084959;28;20680;-86
2020/12/08 09:39:31;;;;;;;10.73;7.57;;;5.80;99.90;;;;;;5090147;28;20536;-88
2020/12/08 09:41:58;;;;;;;11.87;8.60;;;5.90;99.90;;;;;;5096609;28;20521;-87
2020/12/08 09:44:25;;;;;;;11.20;9.47;;;5.90;99.90;;;;;;5086617;28;20551;-87
2020/12/08 09:46:52;;;;;;;14.07;9.23;;;6.10;99.90;;;;;;5065451;28;20524;-85
2020/12/08 09:49:19;;;;;;;9.93;8.23;;;6.00;99.90;;;;;;5075629;28;20817;-86
2020/12/08 09:51:46;;;;;;;11.47;9.00;;;6.00;99.90;;;;;;5089271;28;20491;-86
2020/12/08 09:54:13;;;;;;;10.20;8.27;;;6.00;99.90;;;;;;5095853;28;20551;-85
2020/12/08 09:56:40;;;;;;;12.30;10.03;;;6.00;99.90;;;;;;5084747;28;20510;-86
2020/12/08 09:59:06;;;;;;;12.63;8.87;;;6.00;99.90;;;;;;5074289;28;20450;-86
2020/12/08 10:01:34;;;;;;;10.80;8.70;;;6.10;99.90;;;;;;5085469;28;20462;-87
2020/12/08 10:04:01;;;;;;;12.50;9.27;;;6.20;99.90;;;;;;5072685;28;20906;-86
2020/12/08 10:06:27;;;;;;;11.60;8.70;;;6.30;99.90;;;;;;5077389;28;20478;-85
2020/12/08 10:08:56;;;;;;;9.80;6.70;;;6.30;99.90;;;;;;5080201;28;20532;-86
2020/12/08 10:11:23;;;;;;;7.63;6.83;;;6.20;99.90;;;;;;5075026;28;20454;-86
2020/12/08 10:13:50;;;;;;;11.03;8.27;;;6.20;99.90;;;;;;5088892;28;20442;-86
2020/12/08 10:16:19;;;;;;;8.40;6.23;;;6.20;99.90;;;;;;5088597;28;20477;-85
2020/12/08 10:18:46;;;;;;;8.40;6.83;;;6.20;99.90;;;;;;5074641;28;20442;-86
2020/12/08 10:21:13;;;;;;;8.63;7.20;;;6.20;99.90;;;;;;5076107;28;20563;-87
2020/12/08 10:23:45;;;;;;;10.90;6.70;;;6.20;99.90;;;;;;5081740;28;20499;-88
2020/12/08 10:26:12;;;;;;;8.77;6.60;;;6.20;99.90;;;;;;5075501;28;20511;-87
2020/12/08 10:28:39;;;;;;;9.63;7.30;;;6.10;99.90;;;;;;5075780;28;20965;-88
2020/12/08 10:31:06;;;;;;;9.07;6.40;;;6.10;99.90;;;;;;5077262;28;20517;-86
2020/12/08 10:33:32;;;;;;;10.03;7.30;;;6.00;99.90;;;;;;5075058;28;20489;-86
2020/12/08 10:36:02;;;;;;;8.80;6.10;;;6.00;99.90;;;;;;5074984;28;20959;-84
2020/12/08 10:38:29;;;;;;;9.93;6.83;;;6.10;99.90;;;;;;5086669;28;20481;-87
2020/12/08 10:40:57;;;;;;;10.63;7.60;;;6.10;99.90;;;;;;5093082;28;20449;-84
2020/12/08 10:43:24;;;;;;;9.37;6.33;;;6.20;99.90;;;;;;5094077;28;20463;-83
2020/12/08 10:45:51;;;;;;;7.20;5.77;;;6.30;99.90;;;;;;5093886;28;20781;-84
2020/12/08 10:48:17;;;;;;;10.30;6.13;;;6.40;99.90;;;;;;5094229;28;20576;-84
2020/12/08 10:50:44;;;;;;;8.83;6.93;;;6.30;99.90;;;;;;5092769;28;20529;-84
2020/12/08 10:53:12;;;;;;;7.78;6.35;;;6.40;99.90;;;;;;5094645;28;20464;-86
2020/12/08 10:55:38;;;;;;;7.80;5.90;;;6.40;99.90;;;;;;5102168;28;20232;-87
2020/12/08 10:58:05;;;;;;;9.63;6.63;;;6.50;99.90;;;;;;5106456;28;20514;-85
2020/12/08 11:00:32;;;;;;;9.43;6.93;;;6.60;99.90;;;;;;5073581;28;20805;-93
2020/12/08 11:02:59;;;;;;;9.63;6.47;;;6.70;99.90;;;;;;5078261;28;20456;-83
2020/12/08 11:05:25;;;;;;;7.40;5.63;;;6.70;99.90;;;;;;5091913;28;20516;-84
2020/12/08 11:07:52;;;;;;;8.40;6.00;;;6.80;99.90;;;;;;5093876;28;20543;-86
2020/12/08 11:10:18;;;;;;;8.50;6.40;;;6.90;99.90;;;;;;5095743;28;20524;-83
2020/12/08 11:12:44;;;;;;;9.23;6.80;;;6.90;99.90;;;;;;5090025;28;20570;-83
2020/12/08 11:15:11;;;;;;;9.10;6.50;;;7.00;99.90;;;;;;5089472;28;20538;-84
2020/12/08 11:17:41;;;;;;;7.70;5.73;;;7.00;99.90;;;;;;5090881;28;21027;-84
2020/12/08 11:20:08;;;;;;;7.80;5.90;;;7.10;99.90;;;;;;5097133;28;20456;-86
2020/12/08 11:22:35;;;;;;;9.47;8.00;;;7.10;99.90;;;;;;5096139;28;20450;-85
2020/12/08 11:25:02;;;;;;;9.07;6.43;;;7.00;99.90;;;;;;5097148;28;20548;-84
2020/12/08 11:27:29;;;;;;;8.33;6.10;;;7.10;99.90;;;;;;5085557;28;20530;-84
2020/12/08 11:29:58;;;;;;;8.07;6.70;;;7.10;99.90;;;;;;5097041;28;20481;-84
2020/12/08 11:32:31;;;;;;;8.33;6.07;;;7.10;99.90;;;;;;5097309;28;20481;-86
2020/12/08 11:34:59;;;;;;;6.90;6.10;;;7.20;99.90;;;;;;5098973;28;20445;-87
2020/12/08 11:37:28;;;;;;;7.43;5.03;;;7.20;99.90;;;;;;5096003;28;21044;-86
2020/12/08 11:39:55;;;;;;;9.03;6.07;;;7.30;99.90;;;;;;5096329;28;20906;-86
2020/12/08 11:42:21;;;;;;;6.20;5.03;;;7.40;99.90;;;;;;5095589;28;20969;-88
2020/12/08 11:44:47;;;;;;;6.23;5.13;;;7.30;99.90;;;;;;5093939;28;20529;-85
2020/12/08 11:47:16;;;;;;;7.00;5.20;;;7.30;99.90;;;;;;5098862;28;20478;-86
2020/12/08 11:49:43;;;;;;;6.67;5.53;;;7.20;99.90;;;;;;5095612;28;20560;-86
2020/12/08 11:52:13;;;;;;;8.43;6.13;;;7.20;99.90;;;;;;5097217;28;20513;-87
2020/12/08 11:54:43;;;;;;;10.07;7.10;;;7.20;99.90;;;;;;5096673;28;20530;-86
2020/12/08 11:57:09;;;;;;;7.87;6.10;;;7.20;99.90;;;;;;5095491;28;20485;-86
2020/12/08 11:59:36;;;;;;;8.40;6.70;;;7.10;99.90;;;;;;5089331;28;20465;-84
2020/12/08 12:02:02;;;;;;;12.17;6.17;;;7.00;99.90;;;;;;5095591;28;20513;-87
2020/12/08 12:04:28;;;;;;;7.90;7.10;;;7.10;99.90;;;;;;5093049;28;20444;-85
2020/12/08 12:07:01;;;;;;;8.30;6.10;;;7.00;99.90;;;;;;5095465;28;20517;-85
2020/12/08 12:09:28;;;;;;;7.40;5.63;;;7.00;99.90;;;;;;5095747;28;20985;-88
2020/12/08 12:11:55;;;;;;;9.27;6.53;;;7.00;99.90;;;;;;5096449;28;20454;-84
2020/12/08 12:14:21;;;;;;;7.70;6.67;;;7.10;99.90;;;;;;5094265;28;20533;-85
2020/12/08 12:16:48;;;;;;;7.73;5.60;;;7.00;99.90;;;;;;5096355;28;20805;-85
2020/12/08 12:19:14;;;;;;;9.17;7.03;;;7.10;99.90;;;;;;5096385;28;20525;-86
2020/12/08 12:21:40;;;;;;;8.43;6.30;;;7.20;99.90;;;;;;5096140;28;20552;-84
2020/12/08 12:24:07;;;;;;;11.00;7.50;;;7.20;99.90;;;;;;5096227;28;20480;-86
2020/12/08 12:26:34;;;;;;;9.97;7.90;;;7.10;99.90;;;;;;5096304;28;20454;-85
2020/12/08 12:29:00;;;;;;;14.60;10.00;;;7.00;99.90;;;;;;5096801;28;20561;-86
2020/12/08 12:31:27;;;;;;;12.00;9.00;;;7.00;99.90;;;;;;5096436;28;20536;-85
2020/12/08 12:33:53;;;;;;;13.07;10.40;;;6.90;99.90;;;;;;5096479;28;20545;-85
2020/12/08 12:36:19;;;;;;;10.27;9.00;;;6.80;99.90;;;;;;5096723;28;20529;-85
2020/12/08 12:38:48;;;;;;;15.63;10.93;;;6.80;99.90;;;;;;5096174;28;20564;-85
2020/12/08 12:41:14;;;;;;;14.37;12.87;;;6.60;99.90;;;;;;5096541;28;20454;-85
2020/12/08 12:43:41;;;;;;;15.33;11.40;;;6.70;99.90;;;;;;5095932;28;20538;-85